UERP 152200Z 08002MPS 7000 OVC006 10/10 Q0994 R17/290153 NOSIG RMK QBB180 QFE702
QNH:(hPa/inHg/mmHg)994 / 29.35 / 746
QFE:(hPa/inHg/mmHg)932 / 27.52 / 699
Temperature10
Dew Point10
Visibility7000
Weather
Cloud CoverOVC (600);
Transition Height700 m./4000 ft.
Transition LevelFL60
SQUAWK